Time;durP1;ratioP1;P1;durP2;ratioP2;P2;SDS_P1;SDS_P2;PMS_P1;PMS_P2;Temp;Humidity;BMP_temperature;BMP_pressure;BME280_temperature;BME280_humidity;BME280_pressure;Samples;Min_cycle;Max_cycle;Signal;HPM_P1;HPM_P2
2022/04/03 00:01:22;;;;;;;6.38;3.95;;;2.90;68.30;;;;;;5071398;28;20050;-61
2022/04/03 00:03:48;;;;;;;6.53;4.03;;;2.90;68.40;;;;;;5074372;28;20087;-61
2022/04/03 00:06:13;;;;;;;7.03;4.72;;;2.90;68.30;;;;;;5068478;28;20370;-62
2022/04/03 00:08:40;;;;;;;6.47;4.40;;;2.90;68.40;;;;;;5073880;28;20021;-61
2022/04/03 00:11:05;;;;;;;5.70;3.90;;;2.90;68.50;;;;;;5067890;28;20090;-63
2022/04/03 00:13:31;;;;;;;5.97;3.45;;;2.80;68.40;;;;;;5077800;28;20025;-60
2022/04/03 00:15:57;;;;;;;7.22;3.85;;;3.00;68.60;;;;;;5066488;28;20028;-61
2022/04/03 00:18:22;;;;;;;5.88;3.85;;;2.80;68.60;;;;;;5075680;28;20024;-61
2022/04/03 00:20:49;;;;;;;6.22;3.78;;;2.80;68.60;;;;;;5068273;28;20075;-61
2022/04/03 00:23:15;;;;;;;6.13;4.35;;;2.80;68.40;;;;;;5063939;28;20013;-62
2022/04/03 00:25:40;;;;;;;5.68;3.70;;;3.00;68.60;;;;;;4977793;28;20064;-61
2022/04/03 00:28:06;;;;;;;5.20;3.60;;;2.80;68.60;;;;;;5074029;28;20905;-62
2022/04/03 00:30:33;;;;;;;6.00;4.00;;;2.90;68.60;;;;;;5077593;28;20040;-62
2022/04/03 00:32:59;;;;;;;4.80;3.63;;;2.80;68.60;;;;;;5071475;28;20406;-63
2022/04/03 00:35:25;;;;;;;5.40;3.78;;;3.00;68.60;;;;;;5072009;28;20020;-61
2022/04/03 00:37:51;;;;;;;5.35;3.75;;;3.00;68.50;;;;;;5085857;28;20355;-61
2022/04/03 00:40:17;;;;;;;5.65;4.13;;;2.90;68.50;;;;;;5066319;28;20035;-60
2022/04/03 00:42:43;;;;;;;3.88;3.17;;;2.80;68.40;;;;;;5066097;28;20021;-61
2022/04/03 00:45:10;;;;;;;6.97;4.40;;;2.80;68.50;;;;;;5072015;28;20044;-61
2022/04/03 00:47:35;;;;;;;7.65;4.65;;;2.80;68.30;;;;;;5071513;28;20100;-61
2022/04/03 00:50:02;;;;;;;6.80;3.95;;;3.00;68.50;;;;;;5080338;28;20024;-62
2022/04/03 00:52:28;;;;;;;9.80;5.28;;;2.80;68.30;;;;;;5076811;28;20044;-61
2022/04/03 00:54:53;;;;;;;13.10;5.70;;;2.80;68.20;;;;;;5085044;28;20039;-61
2022/04/03 00:57:22;;;;;;;13.32;5.88;;;2.80;68.30;;;;;;5096849;28;20064;-62
2022/04/03 00:59:49;;;;;;;8.60;5.22;;;2.70;68.20;;;;;;5083269;28;20055;-61
2022/04/03 01:02:15;;;;;;;10.05;5.90;;;2.90;68.50;;;;;;5083670;28;20108;-61
2022/04/03 01:04:41;;;;;;;9.15;5.07;;;2.70;68.40;;;;;;5091405;28;20020;-61
2022/04/03 01:07:07;;;;;;;10.05;5.47;;;2.70;68.30;;;;;;5088069;28;20043;-62
2022/04/03 01:09:33;;;;;;;12.18;5.47;;;2.70;68.50;;;;;;5091140;28;20112;-61
2022/04/03 01:12:00;;;;;;;11.68;6.22;;;2.70;68.40;;;;;;5075048;28;20471;-61
2022/04/03 01:14:32;;;;;;;7.45;5.13;;;2.70;68.40;;;;;;5061668;28;20087;-63
2022/04/03 01:16:58;;;;;;;8.35;5.25;;;2.70;68.50;;;;;;5080000;28;20031;-61
2022/04/03 01:19:24;;;;;;;8.70;5.50;;;2.70;68.50;;;;;;5082927;28;20390;-61
2022/04/03 01:21:50;;;;;;;6.20;4.63;;;2.70;68.50;;;;;;5067110;28;20020;-62
2022/04/03 01:24:18;;;;;;;6.78;4.28;;;2.80;68.50;;;;;;5086904;28;20490;-60
2022/04/03 01:26:44;;;;;;;5.80;4.30;;;2.70;68.50;;;;;;5065237;28;20055;-63
2022/04/03 01:29:09;;;;;;;4.40;3.38;;;2.70;68.60;;;;;;5084217;28;20029;-63
2022/04/03 01:31:35;;;;;;;4.70;4.00;;;2.70;68.70;;;;;;5084491;28;20028;-61
2022/04/03 01:34:01;;;;;;;7.22;4.22;;;2.70;68.60;;;;;;5083293;28;20044;-61
2022/04/03 01:36:26;;;;;;;7.82;4.43;;;2.70;68.80;;;;;;5083521;28;20028;-60
2022/04/03 01:38:52;;;;;;;6.78;4.40;;;2.70;68.60;;;;;;5066432;28;20114;-61
2022/04/03 01:41:17;;;;;;;7.07;4.50;;;2.80;68.80;;;;;;5085276;28;20082;-62
2022/04/03 01:43:43;;;;;;;6.97;4.40;;;2.70;68.70;;;;;;5087142;28;20157;-61
2022/04/03 01:46:09;;;;;;;5.22;3.75;;;2.70;68.70;;;;;;5093944;28;20044;-61
2022/04/03 01:48:34;;;;;;;7.68;4.55;;;2.70;68.80;;;;;;5090150;28;20026;-61
2022/04/03 01:51:00;;;;;;;6.63;4.43;;;2.70;68.80;;;;;;5083910;28;20055;-61
2022/04/03 01:53:26;;;;;;;5.78;4.65;;;2.70;68.70;;;;;;5087169;28;20096;-61
2022/04/03 01:56:06;;;;;;;5.85;4.75;;;2.70;68.90;;;;;;5086087;28;20466;-60
2022/04/03 01:58:34;;;;;;;6.82;4.47;;;2.70;69.10;;;;;;5092601;28;20440;-60
2022/04/03 02:01:00;;;;;;;9.20;4.80;;;2.80;68.90;;;;;;5087395;28;20017;-61
2022/04/03 02:03:26;;;;;;;9.75;4.78;;;2.80;69.10;;;;;;5081228;28;20058;-61
2022/04/03 02:05:53;;;;;;;9.38;4.60;;;2.80;69.00;;;;;;5089028;28;20098;-60
2022/04/03 02:08:18;;;;;;;8.80;5.30;;;2.80;69.00;;;;;;5088367;28;20021;-61
2022/04/03 02:10:44;;;;;;;6.45;4.78;;;2.80;69.20;;;;;;5092306;28;20042;-60
2022/04/03 02:13:11;;;;;;;7.28;4.63;;;2.80;69.30;;;;;;5087590;28;20055;-61
2022/04/03 02:15:37;;;;;;;6.05;4.13;;;2.80;69.20;;;;;;5088806;28;20036;-63
2022/04/03 02:18:02;;;;;;;7.80;4.60;;;2.80;69.10;;;;;;5071238;28;20514;-62
2022/04/03 02:20:28;;;;;;;6.78;4.75;;;2.90;69.00;;;;;;5089652;28;20027;-60
2022/04/03 02:22:54;;;;;;;11.00;5.10;;;2.90;69.00;;;;;;5068641;28;20478;-61
2022/04/03 02:25:20;;;;;;;10.73;5.60;;;2.90;68.90;;;;;;5087654;28;20120;-61
2022/04/03 02:27:47;;;;;;;8.07;5.38;;;2.90;68.60;;;;;;5099619;28;20025;-61
2022/04/03 02:30:13;;;;;;;10.68;5.03;;;2.90;68.80;;;;;;5088215;28;20021;-61
2022/04/03 02:32:41;;;;;;;8.80;5.53;;;2.90;68.90;;;;;;5074576;28;20029;-62
2022/04/03 02:35:09;;;;;;;7.65;4.95;;;3.10;68.80;;;;;;5069594;28;20035;-60
2022/04/03 02:37:36;;;;;;;6.93;5.05;;;2.90;68.80;;;;;;5088045;28;20341;-61
2022/04/03 02:40:05;;;;;;;6.70;4.72;;;2.90;68.80;;;;;;5087478;28;20021;-62
2022/04/03 02:42:31;;;;;;;8.23;5.47;;;2.90;68.90;;;;;;5094458;28;20017;-62
2022/04/03 02:44:57;;;;;;;7.10;5.13;;;2.90;68.90;;;;;;5079557;28;20504;-62
2022/04/03 02:47:23;;;;;;;7.70;5.47;;;2.90;69.00;;;;;;5062551;28;20035;-60
2022/04/03 02:49:50;;;;;;;8.73;5.78;;;2.90;69.10;;;;;;5087874;28;20025;-61
2022/04/03 02:52:17;;;;;;;7.00;5.10;;;2.90;68.90;;;;;;5087939;28;20047;-61
2022/04/03 02:54:44;;;;;;;7.25;5.38;;;3.00;69.00;;;;;;5086486;28;20050;-63
2022/04/03 02:57:11;;;;;;;8.68;5.15;;;2.90;68.80;;;;;;5084735;28;20031;-61
2022/04/03 02:59:37;;;;;;;8.27;5.07;;;2.90;68.70;;;;;;5083449;28;20028;-61
2022/04/03 03:02:03;;;;;;;7.72;5.70;;;2.90;68.70;;;;;;5085416;28;20091;-61
2022/04/03 03:04:28;;;;;;;9.25;5.55;;;2.90;68.80;;;;;;5076791;28;20037;-60
2022/04/03 03:06:54;;;;;;;12.82;6.00;;;2.90;68.70;;;;;;5083923;28;20064;-61
2022/04/03 03:09:20;;;;;;;7.53;4.70;;;2.90;68.50;;;;;;5087605;28;20031;-61
2022/04/03 03:11:45;;;;;;;7.53;4.93;;;3.10;68.60;;;;;;5091055;28;20076;-61
2022/04/03 03:14:11;;;;;;;8.15;5.53;;;3.20;68.70;;;;;;5084293;28;20020;-61
2022/04/03 03:16:37;;;;;;;7.70;5.32;;;2.90;68.70;;;;;;5071157;28;20036;-62
2022/04/03 03:19:02;;;;;;;9.20;5.38;;;2.90;68.70;;;;;;5086382;28;20062;-61
2022/04/03 03:21:28;;;;;;;8.57;5.63;;;2.90;69.50;;;;;;5088114;28;20119;-61
2022/04/03 03:23:54;;;;;;;7.70;5.28;;;2.90;68.70;;;;;;5090710;28;20028;-61
2022/04/03 03:26:20;;;;;;;7.85;5.25;;;2.90;68.90;;;;;;5107531;28;20028;-61
2022/04/03 03:28:46;;;;;;;9.82;5.38;;;2.90;69.00;;;;;;5086208;28;20059;-62
2022/04/03 03:31:12;;;;;;;8.88;5.25;;;2.90;69.00;;;;;;5087776;28;20032;-61
2022/04/03 03:33:37;;;;;;;7.03;5.20;;;2.90;68.90;;;;;;5086873;28;20033;-62
2022/04/03 03:36:05;;;;;;;7.90;5.32;;;3.00;68.80;;;;;;5086840;28;20035;-60
2022/04/03 03:38:31;;;;;;;7.75;5.25;;;3.00;68.80;;;;;;5086963;28;20092;-62
2022/04/03 03:40:56;;;;;;;7.63;5.55;;;3.00;68.80;;;;;;5086409;28;20024;-61
2022/04/03 03:43:22;;;;;;;8.52;5.72;;;3.00;68.70;;;;;;5088679;28;20044;-61
2022/04/03 03:45:48;;;;;;;8.30;5.32;;;3.20;68.80;;;;;;5068996;28;20075;-61
2022/04/03 03:48:13;;;;;;;5.85;4.65;;;3.00;68.60;;;;;;5097478;28;20092;-60
2022/04/03 03:50:39;;;;;;;7.38;5.20;;;3.00;68.40;;;;;;5089046;28;20033;-61
2022/04/03 03:53:05;;;;;;;6.55;5.05;;;3.00;68.40;;;;;;5087092;28;20056;-60
2022/04/03 03:55:30;;;;;;;6.22;4.35;;;2.90;68.30;;;;;;5085701;28;20036;-61
2022/04/03 03:57:56;;;;;;;8.35;5.45;;;2.90;68.30;;;;;;5076897;28;20024;-61
2022/04/03 04:00:21;;;;;;;6.13;4.30;;;3.00;68.40;;;;;;5086857;28;20043;-61
2022/04/03 04:02:47;;;;;;;8.02;5.28;;;2.90;68.50;;;;;;5085601;28;20447;-60
2022/04/03 04:05:13;;;;;;;10.48;4.95;;;2.90;68.60;;;;;;5085697;28;20433;-60
2022/04/03 04:07:39;;;;;;;10.63;4.75;;;2.90;68.60;;;;;;5085782;28;20028;-60
2022/04/03 04:10:05;;;;;;;7.03;4.88;;;3.00;68.60;;;;;;5088469;28;20085;-62
2022/04/03 04:12:31;;;;;;;7.85;5.40;;;3.00;68.40;;;;;;5099914;28;20497;-61
2022/04/03 04:14:57;;;;;;;10.93;5.68;;;3.00;68.30;;;;;;5085880;28;20028;-61
2022/04/03 04:17:23;;;;;;;8.25;5.20;;;3.20;68.50;;;;;;5087391;28;20058;-61
2022/04/03 04:19:49;;;;;;;8.13;5.20;;;3.00;68.30;;;;;;5084655;28;20028;-61
2022/04/03 04:22:16;;;;;;;7.10;5.38;;;3.00;68.40;;;;;;5085712;28;20064;-61
2022/04/03 04:24:42;;;;;;;8.00;5.55;;;3.00;68.30;;;;;;5083220;28;20044;-62
2022/04/03 04:27:08;;;;;;;7.88;5.07;;;2.90;68.10;;;;;;5079773;28;20036;-61
2022/04/03 04:29:34;;;;;;;7.38;5.20;;;2.90;68.20;;;;;;5087300;28;20033;-61
2022/04/03 04:31:59;;;;;;;7.38;5.05;;;2.90;68.10;;;;;;5091844;28;20024;-60
2022/04/03 04:34:25;;;;;;;8.25;5.40;;;2.90;68.10;;;;;;5085597;28;20032;-61
2022/04/03 04:36:51;;;;;;;8.50;5.10;;;2.90;68.20;;;;;;5082260;28;20029;-61
2022/04/03 04:39:16;;;;;;;6.65;4.85;;;2.90;68.20;;;;;;5085223;28;20042;-61
2022/04/03 04:41:42;;;;;;;8.05;5.50;;;2.90;68.40;;;;;;5085809;28;20061;-61
2022/04/03 04:44:08;;;;;;;10.55;5.35;;;2.90;68.50;;;;;;5083807;28;20031;-61
2022/04/03 04:46:34;;;;;;;10.00;5.57;;;2.90;68.50;;;;;;5085309;28;20033;-61
2022/04/03 04:49:00;;;;;;;7.68;5.18;;;2.90;68.50;;;;;;5082677;28;20057;-62
2022/04/03 04:51:26;;;;;;;8.18;5.53;;;2.90;68.40;;;;;;5094900;28;20024;-60
2022/04/03 04:53:51;;;;;;;11.30;5.68;;;2.90;68.40;;;;;;5084597;28;20086;-61
2022/04/03 04:56:17;;;;;;;7.05;5.57;;;2.90;68.30;;;;;;5086202;28;20033;-62
2022/04/03 04:58:43;;;;;;;8.52;5.50;;;2.90;68.20;;;;;;5098622;28;20096;-62
2022/04/03 05:01:08;;;;;;;10.50;6.28;;;2.90;68.20;;;;;;5086197;28;20074;-62
2022/04/03 05:03:34;;;;;;;11.27;5.55;;;2.90;68.10;;;;;;5089244;28;20071;-61
2022/04/03 05:06:00;;;;;;;8.25;5.10;;;2.90;68.30;;;;;;5081929;28;20028;-61
2022/04/03 05:08:26;;;;;;;8.95;5.65;;;2.90;68.40;;;;;;5089991;28;20028;-61
2022/04/03 05:10:53;;;;;;;9.38;5.22;;;2.90;68.30;;;;;;5091302;28;20032;-62
2022/04/03 05:13:19;;;;;;;9.52;6.28;;;3.00;68.30;;;;;;5083001;28;20561;-62
2022/04/03 05:15:45;;;;;;;12.23;6.00;;;2.80;68.30;;;;;;5084437;28;20028;-61
2022/04/03 05:18:11;;;;;;;11.95;5.97;;;2.80;68.40;;;;;;5065816;28;20025;-63
2022/04/03 05:20:36;;;;;;;8.75;5.75;;;3.00;68.40;;;;;;5085667;28;20058;-62
2022/04/03 05:23:02;;;;;;;8.98;6.18;;;3.20;68.50;;;;;;5085859;28;20024;-61
2022/04/03 05:25:28;;;;;;;10.18;5.45;;;2.90;68.20;;;;;;5103293;28;20048;-61
2022/04/03 05:27:54;;;;;;;8.48;6.05;;;3.00;68.10;;;;;;5085762;28;20032;-61
2022/04/03 05:30:20;;;;;;;14.60;5.45;;;2.90;68.00;;;;;;5084315;28;20032;-61
2022/04/03 05:32:46;;;;;;;9.13;5.75;;;3.10;68.10;;;;;;5084398;28;20039;-61
2022/04/03 05:35:13;;;;;;;10.15;6.45;;;3.20;68.10;;;;;;5089889;28;20089;-61
2022/04/03 05:37:39;;;;;;;9.60;6.45;;;2.90;67.90;;;;;;5083109;28;20028;-62
2022/04/03 05:40:05;;;;;;;10.30;6.13;;;2.90;67.80;;;;;;5087148;28;20032;-61
2022/04/03 05:42:33;;;;;;;13.25;7.45;;;3.00;67.80;;;;;;5085463;28;20712;-61
2022/04/03 05:44:59;;;;;;;13.05;7.35;;;3.20;67.90;;;;;;5083133;28;20551;-61
2022/04/03 05:47:25;;;;;;;10.85;6.25;;;3.00;67.60;;;;;;5067912;28;20040;-61
2022/04/03 05:49:50;;;;;;;7.93;5.28;;;3.00;67.50;;;;;;5084882;28;20036;-60
2022/04/03 05:52:16;;;;;;;8.18;5.43;;;3.00;67.60;;;;;;5067605;28;20048;-61
2022/04/03 05:54:42;;;;;;;8.77;5.60;;;3.00;67.60;;;;;;5081791;28;20033;-61
2022/04/03 05:57:09;;;;;;;8.18;5.20;;;3.20;67.80;;;;;;5054890;28;20032;-61
2022/04/03 05:59:34;;;;;;;8.52;5.72;;;3.40;67.90;;;;;;5084051;28;20025;-61
2022/04/03 06:02:00;;;;;;;9.23;5.80;;;3.10;67.60;;;;;;5079531;28;20029;-61
2022/04/03 06:04:26;;;;;;;9.38;5.85;;;3.10;67.50;;;;;;5065883;28;20108;-61
2022/04/03 06:06:52;;;;;;;10.45;5.43;;;3.20;67.50;;;;;;5065151;28;20062;-61
2022/04/03 06:09:17;;;;;;;10.70;5.80;;;3.50;67.60;;;;;;5069959;28;20100;-62
2022/04/03 06:11:43;;;;;;;9.68;6.20;;;3.30;67.40;;;;;;5046978;28;20046;-61
2022/04/03 06:14:10;;;;;;;13.57;6.50;;;3.30;67.10;;;;;;5076014;28;20021;-61
2022/04/03 06:16:35;;;;;;;9.93;5.90;;;3.40;67.10;;;;;;5062846;28;20021;-61
2022/04/03 06:19:01;;;;;;;8.40;5.80;;;3.40;67.10;;;;;;5080281;28;20443;-62
2022/04/03 06:21:27;;;;;;;8.60;5.93;;;3.40;67.00;;;;;;5064139;28;20538;-62
2022/04/03 06:23:53;;;;;;;8.95;5.55;;;3.50;67.10;;;;;;5081040;28;20058;-60
2022/04/03 06:26:18;;;;;;;8.75;5.40;;;3.50;67.10;;;;;;5063187;28;20041;-62
2022/04/03 06:28:44;;;;;;;11.57;6.90;;;3.70;67.20;;;;;;5072615;28;20031;-61
2022/04/03 06:31:10;;;;;;;10.95;5.28;;;3.70;67.10;;;;;;5062306;28;20073;-61
2022/04/03 06:33:36;;;;;;;7.97;5.00;;;3.80;66.90;;;;;;5077707;28;20036;-60
2022/04/03 06:36:03;;;;;;;12.05;5.07;;;3.90;66.80;;;;;;5075818;28;20075;-61
2022/04/03 06:38:29;;;;;;;6.65;4.70;;;3.90;66.60;;;;;;5076762;28;20013;-61
2022/04/03 06:40:57;;;;;;;8.63;4.20;;;4.00;66.20;;;;;;5067634;28;20031;-61
2022/04/03 06:43:25;;;;;;;5.20;3.85;;;4.00;65.90;;;;;;5064070;28;20037;-61
2022/04/03 06:45:51;;;;;;;6.55;4.38;;;4.20;65.70;;;;;;5066203;28;20446;-61
2022/04/03 06:48:17;;;;;;;10.52;5.53;;;4.30;65.60;;;;;;5077192;28;20104;-61
2022/04/03 06:50:43;;;;;;;6.38;3.88;;;4.20;65.70;;;;;;5070507;28;20033;-62
2022/04/03 06:53:09;;;;;;;11.80;8.02;;;4.40;65.70;;;;;;5077185;28;20056;-61
2022/04/03 06:55:35;;;;;;;7.03;4.60;;;4.20;65.40;;;;;;5072098;28;20128;-61
2022/04/03 06:58:01;;;;;;;11.13;5.10;;;4.30;65.30;;;;;;5073668;28;20025;-60
2022/04/03 07:00:27;;;;;;;5.28;4.05;;;4.40;65.30;;;;;;5075001;28;20108;-60
2022/04/03 07:02:53;;;;;;;5.85;4.00;;;4.40;64.90;;;;;;5066194;28;20036;-60
2022/04/03 07:05:20;;;;;;;6.82;3.90;;;4.60;65.10;;;;;;5071447;28;20029;-61
2022/04/03 07:07:45;;;;;;;18.50;9.30;;;4.60;64.90;;;;;;5043121;28;20033;-61
2022/04/03 07:10:11;;;;;;;8.55;4.57;;;4.80;64.90;;;;;;5061472;28;20057;-60
2022/04/03 07:12:37;;;;;;;12.02;6.45;;;4.90;64.50;;;;;;5066042;28;20120;-61
2022/04/03 07:15:05;;;;;;;6.28;4.10;;;5.00;64.00;;;;;;5079871;28;20025;-61
2022/04/03 07:17:31;;;;;;;7.72;3.13;;;5.10;63.80;;;;;;5080442;28;20050;-61
2022/04/03 07:19:56;;;;;;;6.57;3.35;;;5.20;63.70;;;;;;5077967;28;20024;-61
2022/04/03 07:22:22;;;;;;;6.40;3.80;;;5.30;63.60;;;;;;5052998;28;20592;-62
2022/04/03 07:24:53;;;;;;;5.20;3.38;;;5.40;63.30;;;;;;5036764;28;20394;-61
2022/04/03 07:27:18;;;;;;;4.35;2.90;;;5.60;62.80;;;;;;5085956;28;20056;-61
2022/04/03 07:29:44;;;;;;;5.80;3.33;;;5.70;63.10;;;;;;5083995;28;20502;-62
2022/04/03 07:32:10;;;;;;;4.35;2.83;;;5.80;62.60;;;;;;5073687;28;20025;-61
2022/04/03 07:34:36;;;;;;;17.88;8.75;;;5.90;62.20;;;;;;5055985;28;20462;-61
2022/04/03 07:37:02;;;;;;;7.63;4.30;;;5.90;61.80;;;;;;5078537;28;20021;-61
2022/04/03 07:39:28;;;;;;;8.15;4.53;;;6.00;61.30;;;;;;5078265;28;20362;-60
2022/04/03 07:41:54;;;;;;;22.10;10.25;;;6.10;61.40;;;;;;5073103;28;20029;-60
2022/04/03 07:44:19;;;;;;;7.72;4.45;;;6.20;61.20;;;;;;5054324;28;20071;-61
2022/04/03 07:46:45;;;;;;;5.22;3.55;;;6.20;60.40;;;;;;5081127;28;20054;-61
2022/04/03 07:49:11;;;;;;;78.35;32.15;;;6.30;60.30;;;;;;5077783;28;20036;-61
2022/04/03 07:51:37;;;;;;;14.57;7.88;;;6.40;60.50;;;;;;5068079;28;20034;-61
2022/04/03 07:54:03;;;;;;;7.30;4.47;;;6.50;60.80;;;;;;5073315;28;20111;-60
2022/04/03 07:56:30;;;;;;;4.32;3.33;;;6.50;59.90;;;;;;5081211;28;20048;-61
2022/04/03 07:58:56;;;;;;;5.05;2.67;;;6.60;59.50;;;;;;5072170;28;20020;-61
2022/04/03 08:01:22;;;;;;;4.07;2.70;;;6.70;59.50;;;;;;5060354;28;20031;-60
2022/04/03 08:03:48;;;;;;;4.80;2.17;;;6.80;59.20;;;;;;5048466;28;20029;-61
2022/04/03 08:06:13;;;;;;;3.00;2.40;;;6.80;58.70;;;;;;5077490;28;20518;-60
2022/04/03 08:08:39;;;;;;;3.88;2.33;;;6.90;58.50;;;;;;5067227;28;20092;-60
2022/04/03 08:11:05;;;;;;;2.97;1.98;;;6.90;58.50;;;;;;5065185;28;20049;-61
2022/04/03 08:13:31;;;;;;;2.90;2.17;;;7.00;58.60;;;;;;5076980;28;20486;-63
2022/04/03 08:15:56;;;;;;;4.28;2.20;;;7.00;58.60;;;;;;5083232;28;20095;-60
2022/04/03 08:18:22;;;;;;;3.10;1.98;;;7.20;58.20;;;;;;5061896;28;20035;-61
2022/04/03 08:20:48;;;;;;;7.78;3.00;;;7.20;58.20;;;;;;5049563;28;20044;-61
2022/04/03 08:23:13;;;;;;;6.88;2.50;;;7.30;58.00;;;;;;5053120;28;20029;-61
2022/04/03 08:25:39;;;;;;;6.07;2.75;;;7.40;58.10;;;;;;5068708;28;20040;-61
2022/04/03 08:28:07;;;;;;;4.43;2.58;;;7.50;57.80;;;;;;5069825;28;20060;-61
2022/04/03 08:30:37;;;;;;;4.68;2.92;;;7.60;57.60;;;;;;5063888;28;20074;-61
2022/04/03 08:33:05;;;;;;;3.63;2.63;;;7.70;57.20;;;;;;5085266;28;20103;-61
2022/04/03 08:35:31;;;;;;;5.97;3.38;;;7.80;57.60;;;;;;5073302;28;20028;-61
2022/04/03 08:37:58;;;;;;;6.40;2.72;;;7.90;57.60;;;;;;5075804;28;20032;-62
2022/04/03 08:40:25;;;;;;;2.55;2.10;;;8.00;57.60;;;;;;5043133;28;20032;-62
2022/04/03 08:42:53;;;;;;;3.85;2.60;;;8.10;57.40;;;;;;5062162;28;20037;-61
2022/04/03 08:45:19;;;;;;;4.13;2.58;;;8.20;57.30;;;;;;5057878;28;20053;-62
2022/04/03 08:47:51;;;;;;;4.07;2.42;;;8.40;57.40;;;;;;5052711;28;20025;-61
2022/04/03 08:50:17;;;;;;;7.63;3.45;;;8.60;57.10;;;;;;5052969;28;20021;-61
2022/04/03 08:52:46;;;;;;;5.15;3.15;;;8.80;57.40;;;;;;5057009;28;20117;-62
2022/04/03 08:55:12;;;;;;;6.35;3.53;;;9.00;56.80;;;;;;5052254;28;20415;-61
2022/04/03 08:57:38;;;;;;;6.63;3.85;;;9.20;56.30;;;;;;5059023;28;20021;-62
2022/04/03 09:00:05;;;;;;;4.53;2.33;;;9.20;55.60;;;;;;5049330;28;20373;-62
2022/04/03 09:02:31;;;;;;;5.63;3.00;;;9.30;55.50;;;;;;5062655;28;20028;-63
2022/04/03 09:04:56;;;;;;;4.50;2.38;;;9.40;55.30;;;;;;5056491;28;20087;-61
2022/04/03 09:07:22;;;;;;;2.35;2.00;;;9.40;54.80;;;;;;5045092;28;20064;-62
2022/04/03 09:10:14;;;;;;;4.57;2.10;;;9.50;54.70;;;;;;5068025;28;20533;-63
2022/04/03 09:12:47;;;;;;;2.70;2.33;;;9.60;53.50;;;;;;5061960;28;20064;-61
2022/04/03 09:15:15;;;;;;;3.15;1.85;;;9.70;53.60;;;;;;5061139;28;20477;-59
2022/04/03 09:17:44;;;;;;;3.35;1.90;;;9.80;54.50;;;;;;5064029;28;20013;-58
2022/04/03 09:20:12;;;;;;;4.55;2.10;;;9.80;54.10;;;;;;5060249;28;20033;-60
2022/04/03 09:22:41;;;;;;;2.70;1.90;;;9.90;54.00;;;;;;5050014;28;20086;-60
2022/04/03 09:25:12;;;;;;;2.88;1.92;;;9.90;53.50;;;;;;5005587;28;20609;-61
2022/04/03 09:27:49;;;;;;;2.30;1.80;;;10.00;53.30;;;;;;5069045;28;20020;-62
2022/04/03 09:30:17;;;;;;;1.95;1.63;;;10.00;52.40;;;;;;5068800;28;20029;-63
2022/04/03 09:32:50;;;;;;;2.08;1.65;;;10.20;53.50;;;;;;5078280;28;20056;-61
2022/04/03 09:35:19;;;;;;;3.85;2.10;;;10.30;52.40;;;;;;5043645;28;20419;-60
2022/04/03 09:38:09;;;;;;;4.57;1.85;;;10.40;52.90;;;;;;5064596;28;20025;-61
2022/04/03 09:40:41;;;;;;;3.25;1.88;;;10.40;51.00;;;;;;5058387;28;20044;-61
2022/04/03 09:43:23;;;;;;;9.10;1.80;;;10.40;52.10;;;;;;5064419;28;20021;-61
2022/04/03 09:45:58;;;;;;;3.80;1.88;;;10.30;50.70;;;;;;5067816;28;20040;-61
2022/04/03 09:48:27;;;;;;;8.25;2.03;;;10.30;51.40;;;;;;5064178;28;20065;-61
2022/04/03 09:50:59;;;;;;;5.32;2.05;;;10.20;51.30;;;;;;5046747;28;20029;-61
2022/04/03 09:53:29;;;;;;;2.50;1.80;;;10.10;51.00;;;;;;5068578;28;20056;-61
2022/04/03 09:55:55;;;;;;;2.00;1.70;;;10.10;51.90;;;;;;5076529;28;20028;-61
2022/04/03 09:58:22;;;;;;;5.35;1.85;;;10.00;51.20;;;;;;5072607;28;20033;-61
2022/04/03 10:00:48;;;;;;;3.33;2.10;;;10.00;51.10;;;;;;5073170;28;20079;-62
2022/04/03 10:03:14;;;;;;;2.92;1.75;;;9.90;50.80;;;;;;5074892;28;20040;-61
2022/04/03 10:05:42;;;;;;;2.75;1.95;;;9.80;50.80;;;;;;5062770;28;20593;-62
2022/04/03 10:08:08;;;;;;;3.28;1.48;;;9.70;50.60;;;;;;5066655;28;20068;-61
2022/04/03 10:10:35;;;;;;;2.63;1.60;;;9.60;50.70;;;;;;5070921;28;20391;-61
2022/04/03 10:13:02;;;;;;;4.07;1.70;;;9.40;50.40;;;;;;5076006;28;20025;-61
2022/04/03 10:15:28;;;;;;;2.22;1.42;;;9.30;49.60;;;;;;5074072;28;20118;-61
2022/04/03 10:17:55;;;;;;;2.08;1.50;;;9.10;50.10;;;;;;5080719;28;20569;-61
2022/04/03 10:20:25;;;;;;;2.67;1.60;;;9.00;50.10;;;;;;5065956;28;20017;-61
2022/04/03 10:22:55;;;;;;;2.58;1.70;;;8.90;50.00;;;;;;5075618;28;20078;-62
2022/04/03 10:25:28;;;;;;;1.67;1.40;;;8.70;48.60;;;;;;5073584;28;20029;-60
2022/04/03 10:27:58;;;;;;;5.32;1.60;;;8.50;49.60;;;;;;5079444;28;20040;-61
2022/04/03 10:30:43;;;;;;;2.08;1.70;;;8.40;50.30;;;;;;5073892;28;20032;-62
2022/04/03 10:33:20;;;;;;;2.35;1.45;;;8.40;50.10;;;;;;5078671;28;20086;-62
2022/04/03 10:35:49;;;;;;;2.10;1.35;;;8.50;51.40;;;;;;5068200;28;20115;-61
2022/04/03 10:38:15;;;;;;;2.67;1.45;;;8.70;51.10;;;;;;5074453;28;20539;-61
2022/04/03 10:40:56;;;;;;;3.40;1.73;;;8.90;51.10;;;;;;5067400;28;20025;-61
2022/04/03 10:43:27;;;;;;;2.90;1.60;;;8.90;49.60;;;;;;5062953;28;20036;-61
2022/04/03 10:45:53;;;;;;;3.45;1.95;;;8.90;50.00;;;;;;5060381;28;20028;-62
2022/04/03 10:48:21;;;;;;;4.13;1.75;;;8.80;50.40;;;;;;5068441;28;20102;-62
2022/04/03 10:51:10;;;;;;;4.45;1.65;;;8.70;49.90;;;;;;5069484;28;20057;-63
2022/04/03 10:53:47;;;;;;;2.00;1.52;;;8.60;49.60;;;;;;5076127;28;20471;-62
2022/04/03 10:56:21;;;;;;;6.70;2.17;;;8.40;49.60;;;;;;5056149;28;20554;-61
2022/04/03 10:58:48;;;;;;;3.22;2.00;;;8.30;49.20;;;;;;5086520;28;20047;-62
2022/04/03 11:01:29;;;;;;;3.50;2.00;;;8.10;48.70;;;;;;5090316;28;20025;-63
2022/04/03 11:04:09;;;;;;;5.18;2.83;;;7.90;49.10;;;;;;5082549;28;20048;-62
2022/04/03 11:06:36;;;;;;;4.65;2.58;;;7.70;50.20;;;;;;5072616;28;20039;-61
2022/04/03 11:09:07;;;;;;;5.32;2.92;;;7.60;51.00;;;;;;5087796;28;20021;-62
2022/04/03 11:11:42;;;;;;;3.90;2.55;;;7.50;49.30;;;;;;5073951;28;20497;-61
2022/04/03 11:14:32;;;;;;;3.45;2.05;;;7.40;50.80;;;;;;5090051;28;20032;-61
2022/04/03 11:16:57;;;;;;;5.13;1.92;;;7.20;50.40;;;;;;5081195;28;20060;-61
2022/04/03 11:19:40;;;;;;;2.15;1.70;;;7.20;51.10;;;;;;5090382;28;20051;-62
2022/04/03 11:22:08;;;;;;;3.05;1.83;;;7.10;50.90;;;;;;5076581;28;20021;-62
2022/04/03 11:24:37;;;;;;;7.55;2.53;;;7.20;51.70;;;;;;5086329;28;20025;-60
2022/04/03 11:27:07;;;;;;;3.72;2.25;;;7.20;51.10;;;;;;5082259;28;20166;-62
2022/04/03 11:29:33;;;;;;;7.65;2.25;;;7.20;51.20;;;;;;5063205;28;20036;-61
2022/04/03 11:32:03;;;;;;;5.15;2.40;;;7.20;51.70;;;;;;5084920;28;20024;-61
2022/04/03 11:34:33;;;;;;;7.22;4.63;;;7.30;52.10;;;;;;5076756;28;20040;-61
2022/04/03 11:37:00;;;;;;;4.05;2.72;;;7.40;52.00;;;;;;5076863;28;20033;-62
2022/04/03 11:39:31;;;;;;;3.67;2.53;;;7.50;52.20;;;;;;5080226;28;20085;-61
2022/04/03 11:42:00;;;;;;;3.70;2.13;;;7.70;52.30;;;;;;5085703;28;20077;-62
2022/04/03 11:44:26;;;;;;;2.50;2.03;;;7.80;52.10;;;;;;5085625;28;20023;-61
2022/04/03 11:46:52;;;;;;;8.90;2.45;;;8.00;52.00;;;;;;5070740;28;20118;-61
2022/04/03 11:49:25;;;;;;;3.13;1.85;;;8.10;51.70;;;;;;5079209;28;20043;-61
2022/04/03 11:52:06;;;;;;;5.00;2.30;;;8.10;51.00;;;;;;5080361;28;20033;-60
2022/04/03 11:54:32;;;;;;;2.05;1.67;;;8.10;51.20;;;;;;5073909;28;20053;-61
2022/04/03 11:57:00;;;;;;;2.92;1.83;;;8.10;51.20;;;;;;5079318;28;20044;-62
2022/04/03 11:59:26;;;;;;;5.45;2.10;;;8.00;50.70;;;;;;5075216;28;20017;-62
2022/04/03 12:01:52;;;;;;;5.10;2.10;;;8.00;50.60;;;;;;5085449;28;20042;-61
2022/04/03 12:04:19;;;;;;;4.15;2.00;;;7.90;49.90;;;;;;5067605;28;20052;-61
2022/04/03 12:06:47;;;;;;;4.00;2.22;;;7.80;50.70;;;;;;5083129;28;20028;-63
2022/04/03 12:09:21;;;;;;;8.07;2.38;;;7.80;51.10;;;;;;5075535;28;20091;-61
2022/04/03 12:11:51;;;;;;;2.25;1.25;;;7.70;51.70;;;;;;5083959;28;20020;-60
2022/04/03 12:14:25;;;;;;;4.40;2.10;;;7.70;51.90;;;;;;5068226;28;20040;-61
2022/04/03 12:17:00;;;;;;;5.22;2.33;;;7.70;51.60;;;;;;5078648;28;20031;-60
2022/04/03 12:19:28;;;;;;;6.93;2.20;;;7.60;51.00;;;;;;5078015;28;20438;-61
2022/04/03 12:21:56;;;;;;;3.13;2.00;;;7.50;51.10;;;;;;5081683;28;20032;-61
2022/04/03 12:24:29;;;;;;;2.85;2.22;;;7.40;51.30;;;;;;5080128;28;20073;-61
2022/04/03 12:27:14;;;;;;;2.95;2.03;;;7.30;50.30;;;;;;5022953;28;20037;-61
2022/04/03 12:29:41;;;;;;;;;;;7.20;50.50;;;;;;5075294;28;20013;-61
2022/04/03 12:32:10;;;;;;;4.45;1.90;;;7.20;50.90;;;;;;5079391;28;19909;-61
2022/04/03 12:34:38;;;;;;;5.93;2.30;;;7.30;52.30;;;;;;5080652;28;20021;-62
2022/04/03 12:37:05;;;;;;;4.57;1.92;;;7.40;52.80;;;;;;5081503;28;20036;-61
2022/04/03 12:39:32;;;;;;;3.42;1.85;;;7.70;53.00;;;;;;5076189;28;20027;-62
2022/04/03 12:42:21;;;;;;;3.13;1.80;;;7.90;53.10;;;;;;5081562;28;20028;-61
2022/04/03 12:44:55;;;;;;;2.97;1.80;;;8.30;51.60;;;;;;5080507;28;20067;-61
2022/04/03 12:47:29;;;;;;;3.75;1.95;;;8.60;50.90;;;;;;5076726;28;20082;-61
2022/04/03 12:50:10;;;;;;;3.97;1.63;;;8.80;48.00;;;;;;5075808;28;20066;-62
2022/04/03 12:52:44;;;;;;;4.03;1.92;;;8.80;47.60;;;;;;5083596;28;20044;-63
2022/04/03 12:55:25;;;;;;;;;;;8.80;48.30;;;;;;5084167;28;20028;-62
2022/04/03 13:00:44;;;;;;;3.90;2.17;;;8.70;48.10;;;;;;5078208;28;20051;-62